createdAt,value
2023-12-02T00:00:30.922Z,-2
2023-12-02T00:01:45.215Z,-2
2023-12-02T00:02:59.509Z,-2
2023-12-02T00:04:13.802Z,-2
2023-12-02T00:05:28.097Z,-2
2023-12-02T00:06:42.391Z,-2
2023-12-02T00:07:56.684Z,-2
2023-12-02T00:09:10.978Z,-2
2023-12-02T00:10:25.272Z,-2
2023-12-02T00:11:39.566Z,-2
2023-12-02T00:12:53.859Z,-2
2023-12-02T00:14:08.153Z,-2
2023-12-02T00:15:22.447Z,-1.9
2023-12-02T00:16:35.756Z,-1.9
2023-12-02T00:17:50.050Z,-1.9
2023-12-02T00:19:04.344Z,-1.9
2023-12-02T00:20:18.638Z,-1.9
2023-12-02T00:21:32.932Z,-1.9
2023-12-02T00:22:47.225Z,-1.9
2023-12-02T00:24:00.540Z,-1.9
2023-12-02T00:25:14.834Z,-1.9
2023-12-02T00:26:29.128Z,-1.9
2023-12-02T00:27:43.421Z,-2
2023-12-02T00:28:57.715Z,-1.9
2023-12-02T00:30:12.009Z,-1.9
2023-12-02T00:31:26.303Z,-1.9
2023-12-02T00:32:40.596Z,-1.9
2023-12-02T00:33:54.890Z,-1.9
2023-12-02T00:35:09.184Z,-2
2023-12-02T00:36:23.477Z,-1.9
2023-12-02T00:37:37.771Z,-1.9
2023-12-02T00:38:52.065Z,-1.9
2023-12-02T00:40:05.375Z,-1.9
2023-12-02T00:41:19.668Z,-2
2023-12-02T00:42:33.962Z,-2
2023-12-02T00:43:48.256Z,-2
2023-12-02T00:45:02.550Z,-2
2023-12-02T00:46:16.843Z,-2
2023-12-02T00:47:31.137Z,-2
2023-12-02T00:48:45.431Z,-2
2023-12-02T00:49:59.724Z,-2
2023-12-02T00:51:14.018Z,-2
2023-12-02T00:52:28.312Z,-2.1
2023-12-02T00:53:42.606Z,-2.1
2023-12-02T00:54:56.899Z,-2
2023-12-02T00:56:10.209Z,-2
2023-12-02T00:57:24.503Z,-2.1
2023-12-02T00:58:38.797Z,-2
2023-12-02T00:59:53.090Z,-2
2023-12-02T01:01:07.384Z,-2.1
2023-12-02T01:02:21.678Z,-2
2023-12-02T01:03:35.972Z,-2.1
2023-12-02T01:04:50.265Z,-2
2023-12-02T01:06:04.559Z,-2
2023-12-02T01:07:18.853Z,-2
2023-12-02T01:08:33.146Z,-2
2023-12-02T01:09:47.440Z,-2.1
2023-12-02T01:11:01.734Z,-2
2023-12-02T01:12:15.043Z,-2
2023-12-02T01:13:29.337Z,-2
2023-12-02T01:14:43.631Z,-2
2023-12-02T01:15:57.925Z,-2.1
2023-12-02T01:17:12.218Z,-2.1
2023-12-02T01:18:26.512Z,-2.1
2023-12-02T01:19:40.806Z,-2.1
2023-12-02T01:20:55.099Z,-2.1
2023-12-02T01:22:09.393Z,-2
2023-12-02T01:23:23.686Z,-2
2023-12-02T01:24:37.980Z,-2
2023-12-02T01:25:52.274Z,-2
2023-12-02T01:27:06.568Z,-2
2023-12-02T01:28:19.877Z,-2
2023-12-02T01:29:34.171Z,-2
2023-12-02T01:30:48.465Z,-2.1
2023-12-02T01:32:02.758Z,-2.1
2023-12-02T01:33:17.052Z,-2.1
2023-12-02T01:34:31.346Z,-2.1
2023-12-02T01:35:45.640Z,-2.1
2023-12-02T01:36:59.933Z,-2.1
2023-12-02T01:38:14.227Z,-2.1
2023-12-02T01:39:28.520Z,-2.1
2023-12-02T01:40:42.814Z,-2.2
2023-12-02T01:41:57.108Z,-2.1
2023-12-02T01:43:11.401Z,-2.1
2023-12-02T01:44:24.711Z,-2.1
2023-12-02T01:45:39.005Z,-2.1
2023-12-02T01:46:53.299Z,-2.1
2023-12-02T01:48:07.592Z,-2.1
2023-12-02T01:49:21.886Z,-2.1
2023-12-02T01:50:36.180Z,-2.1
2023-12-02T01:51:50.473Z,-2.1
2023-12-02T01:53:04.767Z,-2.2
2023-12-02T01:54:19.061Z,-2.2
2023-12-02T01:55:33.355Z,-2.2
2023-12-02T01:56:47.649Z,-2.1
2023-12-02T01:58:01.942Z,-2.2
2023-12-02T01:59:16.236Z,-2.2
2023-12-02T02:00:29.546Z,-2.2
2023-12-02T02:01:43.839Z,-2.2
2023-12-02T02:02:58.133Z,-2.2
2023-12-02T02:04:12.427Z,-2.2
2023-12-02T02:05:26.721Z,-2.2
2023-12-02T02:06:41.015Z,-2.2
2023-12-02T02:07:55.309Z,-2.1
2023-12-02T02:09:09.603Z,-2.2
2023-12-02T02:10:23.870Z,-2.1
2023-12-02T02:11:38.190Z,-2.1
2023-12-02T02:12:52.484Z,-2.1
2023-12-02T02:14:06.777Z,-2.2
2023-12-02T02:15:21.071Z,-2.2
2023-12-02T02:16:34.381Z,-2.2
2023-12-02T02:17:48.675Z,-2.2
2023-12-02T02:19:02.969Z,-2.2
2023-12-02T02:20:17.263Z,-2.1
2023-12-02T02:21:31.557Z,-2.1
2023-12-02T02:22:45.850Z,-2.1
2023-12-02T02:24:00.144Z,-2.1
2023-12-02T02:25:14.438Z,-2.1
2023-12-02T02:26:28.731Z,-2.1
2023-12-02T02:27:43.025Z,-2.1
2023-12-02T02:28:57.319Z,-2.1
2023-12-02T02:30:11.613Z,-2.1
2023-12-02T02:31:25.906Z,-2.2
2023-12-02T02:32:39.216Z,-2.1
2023-12-02T02:33:53.510Z,-2.2
2023-12-02T02:35:07.803Z,-2.2
2023-12-02T02:36:22.097Z,-2.2
2023-12-02T02:37:36.391Z,-2.2
2023-12-02T02:38:50.684Z,-2.2
2023-12-02T02:40:04.979Z,-2.2
2023-12-02T02:41:19.272Z,-2.2
2023-12-02T02:42:33.566Z,-2.2
2023-12-02T02:43:47.860Z,-2.2
2023-12-02T02:45:02.153Z,-2.2
2023-12-02T02:46:16.447Z,-2.2
2023-12-02T02:47:30.741Z,-2.2
2023-12-02T02:48:44.050Z,-2.2
2023-12-02T02:49:58.344Z,-2.2
2023-12-02T02:51:12.638Z,-2.2
2023-12-02T02:52:26.932Z,-2.2
2023-12-02T02:53:41.225Z,-2.3
2023-12-02T02:54:55.519Z,-2.3
2023-12-02T02:56:09.813Z,-2.3
2023-12-02T02:57:24.107Z,-2.3
2023-12-02T02:58:38.401Z,-2.3
2023-12-02T02:59:52.694Z,-2.4
2023-12-02T03:01:06.988Z,-2.3
2023-12-02T03:02:21.282Z,-2.3
2023-12-02T03:03:35.576Z,-2.4
2023-12-02T03:04:48.885Z,-2.4
2023-12-02T03:06:03.179Z,-2.3
2023-12-02T03:07:17.473Z,-2.4
2023-12-02T03:08:31.766Z,-2.4
2023-12-02T03:09:46.060Z,-2.4
2023-12-02T03:11:00.354Z,-2.4
2023-12-02T03:12:14.648Z,-2.3
2023-12-02T03:13:28.941Z,-2.3
2023-12-02T03:14:43.235Z,-2.3
2023-12-02T03:15:57.528Z,-2.3
2023-12-02T03:17:11.822Z,-2.3
2023-12-02T03:18:26.116Z,-2.3
2023-12-02T03:19:40.409Z,-2.2
2023-12-02T03:20:53.719Z,-2.3
2023-12-02T03:22:08.013Z,-2.3
2023-12-02T03:23:22.307Z,-2.3
2023-12-02T03:24:36.600Z,-2.3
2023-12-02T03:25:50.894Z,-2.3
2023-12-02T03:27:05.188Z,-2.3
2023-12-02T03:28:19.482Z,-2.3
2023-12-02T03:29:33.775Z,-2.3
2023-12-02T03:30:48.069Z,-2.2
2023-12-02T03:32:02.363Z,-2.2
2023-12-02T03:33:16.657Z,-2.2
2023-12-02T03:34:30.951Z,-2.2
2023-12-02T03:35:45.244Z,-2.2
2023-12-02T03:36:58.554Z,-2.2
2023-12-02T03:38:12.848Z,-2.2
2023-12-02T03:39:27.141Z,-2.2
2023-12-02T03:40:41.435Z,-2.3
2023-12-02T03:41:55.729Z,-2.3
2023-12-02T03:43:10.022Z,-2.4
2023-12-02T03:44:24.316Z,-2.4
2023-12-02T03:45:38.610Z,-2.4
2023-12-02T03:46:52.904Z,-2.4
2023-12-02T03:48:07.197Z,-2.3
2023-12-02T03:49:21.491Z,-2.3
2023-12-02T03:50:35.785Z,-2.3
2023-12-02T03:51:50.078Z,-2.4
2023-12-02T03:53:03.388Z,-2.4
2023-12-02T03:54:17.682Z,-2.3
2023-12-02T03:55:31.976Z,-2.3
2023-12-02T03:56:46.269Z,-2.4
2023-12-02T03:58:00.563Z,-2.4
2023-12-02T03:59:14.857Z,-2.4
2023-12-02T04:00:29.150Z,-2.3
2023-12-02T04:01:43.444Z,-2.3
2023-12-02T04:02:57.737Z,-2.3
2023-12-02T04:04:12.031Z,-2.3
2023-12-02T04:05:26.325Z,-2.3
2023-12-02T04:06:40.619Z,-2.3
2023-12-02T04:07:54.914Z,-2.3
2023-12-02T04:09:08.223Z,-2.3
2023-12-02T04:10:22.517Z,-2.3
2023-12-02T04:11:36.811Z,-2.3
2023-12-02T04:12:51.104Z,-2.2
2023-12-02T04:14:05.398Z,-2.3
2023-12-02T04:15:19.693Z,-2.3
2023-12-02T04:16:33.987Z,-2.3
2023-12-02T04:17:48.280Z,-2.3
2023-12-02T04:19:02.574Z,-2.3
2023-12-02T04:20:16.868Z,-2.3
2023-12-02T04:21:31.161Z,-2.3
2023-12-02T04:22:45.455Z,-2.4
2023-12-02T04:23:59.749Z,-2.3
2023-12-02T04:25:13.058Z,-2.3
2023-12-02T04:26:27.352Z,-2.3
2023-12-02T04:27:41.646Z,-2.3
2023-12-02T04:28:55.940Z,-2.3
2023-12-02T04:30:10.234Z,-2.3
2023-12-02T04:31:24.527Z,-2.3
2023-12-02T04:32:37.842Z,-2.3
2023-12-02T04:33:52.136Z,-2.3
2023-12-02T04:35:06.430Z,-2.2
2023-12-02T04:36:20.723Z,-2.3
2023-12-02T04:37:35.017Z,-2.3
2023-12-02T04:38:49.311Z,-2.3
2023-12-02T04:40:03.605Z,-2.3
2023-12-02T04:41:17.898Z,-2.3
2023-12-02T04:42:32.192Z,-2.3
2023-12-02T04:43:46.486Z,-2.3
2023-12-02T04:45:00.779Z,-2.3
2023-12-02T04:46:15.074Z,-2.3
2023-12-02T04:47:29.368Z,-2.4
2023-12-02T04:48:42.678Z,-2.4
2023-12-02T04:49:56.972Z,-2.4
2023-12-02T04:51:11.265Z,-2.4
2023-12-02T04:52:25.559Z,-2.4
2023-12-02T04:53:39.853Z,-2.3
2023-12-02T04:54:54.146Z,-2.3
2023-12-02T04:56:08.440Z,-2.3
2023-12-02T04:57:22.734Z,-2.3
2023-12-02T04:58:37.027Z,-2.3
2023-12-02T04:59:51.321Z,-2.3
2023-12-02T05:01:05.615Z,-2.3
2023-12-02T05:02:19.909Z,-2.3
2023-12-02T05:03:34.202Z,-2.3
2023-12-02T05:04:47.512Z,-2.3
2023-12-02T05:06:01.806Z,-2.4
2023-12-02T05:07:16.099Z,-2.4
2023-12-02T05:08:30.393Z,-2.3
2023-12-02T05:09:44.687Z,-2.4
2023-12-02T05:10:58.981Z,-2.3
2023-12-02T05:12:13.274Z,-2.3
2023-12-02T05:13:27.568Z,-2.4
2023-12-02T05:14:41.862Z,-2.4
2023-12-02T05:15:56.156Z,-2.3
2023-12-02T05:17:10.449Z,-2.4
2023-12-02T05:18:24.743Z,-2.4
2023-12-02T05:19:39.037Z,-2.4
2023-12-02T05:20:52.346Z,-2.4
2023-12-02T05:22:06.641Z,-2.4
2023-12-02T05:23:20.934Z,-2.4
2023-12-02T05:24:35.228Z,-2.4
2023-12-02T05:25:49.522Z,-2.4
2023-12-02T05:27:03.815Z,-2.3
2023-12-02T05:28:18.109Z,-2.4
2023-12-02T05:29:32.403Z,-2.3
2023-12-02T05:30:46.697Z,-2.3
2023-12-02T05:32:00.991Z,-2.4
2023-12-02T05:33:15.284Z,-2.4
2023-12-02T05:34:29.578Z,-2.4
2023-12-02T05:35:43.872Z,-2.4
2023-12-02T05:36:57.181Z,-2.4
2023-12-02T05:38:11.475Z,-2.4
2023-12-02T05:39:25.752Z,-2.4
2023-12-02T05:40:40.062Z,-2.4
2023-12-02T05:41:54.356Z,-2.4
2023-12-02T05:43:08.650Z,-2.4
2023-12-02T05:44:22.944Z,-2.4
2023-12-02T05:45:37.238Z,-2.4
2023-12-02T05:46:51.531Z,-2.4
2023-12-02T05:48:05.825Z,-2.4
2023-12-02T05:49:20.119Z,-2.4
2023-12-02T05:50:34.412Z,-2.4
2023-12-02T05:51:48.706Z,-2.5
2023-12-02T05:53:02.016Z,-2.4
2023-12-02T05:54:16.310Z,-2.4
2023-12-02T05:55:30.603Z,-2.4
2023-12-02T05:56:44.897Z,-2.4
2023-12-02T05:57:59.191Z,-2.4
2023-12-02T05:59:13.484Z,-2.4
2023-12-02T06:00:27.778Z,-2.4
2023-12-02T06:01:42.072Z,-2.4
2023-12-02T06:02:56.365Z,-2.4
2023-12-02T06:04:10.659Z,-2.4
2023-12-02T06:05:24.953Z,-2.4
2023-12-02T06:06:39.247Z,-2.4
2023-12-02T06:07:53.541Z,-2.4
2023-12-02T06:09:06.851Z,-2.5
2023-12-02T06:10:21.145Z,-2.5
2023-12-02T06:11:35.438Z,-2.5
2023-12-02T06:12:49.732Z,-2.5
2023-12-02T06:14:04.026Z,-2.5
2023-12-02T06:15:18.320Z,-2.5
2023-12-02T06:16:32.614Z,-2.5
2023-12-02T06:17:46.908Z,-2.4
2023-12-02T06:19:01.202Z,-2.5
2023-12-02T06:20:15.441Z,-2.5
2023-12-02T06:21:29.692Z,-2.5
2023-12-02T06:22:43.932Z,-2.5
2023-12-02T06:23:58.172Z,-2.5
2023-12-02T06:25:11.427Z,-2.5
2023-12-02T06:26:25.668Z,-2.6
2023-12-02T06:27:39.907Z,-2.6
2023-12-02T06:28:54.147Z,-2.5
2023-12-02T06:30:08.387Z,-2.6
2023-12-02T06:31:22.626Z,-2.6
2023-12-02T06:32:36.866Z,-2.6
2023-12-02T06:33:51.106Z,-2.6
2023-12-02T06:35:05.346Z,-2.6
2023-12-02T06:36:19.586Z,-2.6
2023-12-02T06:37:33.826Z,-2.6
2023-12-02T06:38:48.065Z,-2.7
2023-12-02T06:40:02.305Z,-2.7
2023-12-02T06:41:15.561Z,-2.7
2023-12-02T06:42:29.801Z,-2.7
2023-12-02T06:43:44.041Z,-2.7
2023-12-02T06:44:58.281Z,-2.7
2023-12-02T06:46:12.521Z,-2.7
2023-12-02T06:47:26.761Z,-2.7
2023-12-02T06:48:41.000Z,-2.7
2023-12-02T06:49:55.240Z,-2.7
2023-12-02T06:51:09.480Z,-2.7
2023-12-02T06:52:23.719Z,-2.7
2023-12-02T06:53:37.959Z,-2.7
2023-12-02T06:54:52.199Z,-2.7
2023-12-02T06:56:06.439Z,-2.7
2023-12-02T06:57:19.694Z,-2.7
2023-12-02T06:58:33.935Z,-2.7
2023-12-02T06:59:48.174Z,-2.7
2023-12-02T07:01:02.414Z,-2.7
2023-12-02T07:02:16.654Z,-2.7
2023-12-02T07:03:30.894Z,-2.6
2023-12-02T07:04:45.134Z,-2.6
2023-12-02T07:05:59.374Z,-2.7
2023-12-02T07:07:13.615Z,-2.7
2023-12-02T07:08:27.855Z,-2.7
2023-12-02T07:09:42.094Z,-2.6
2023-12-02T07:10:56.334Z,-2.7
2023-12-02T07:12:10.574Z,-2.7
2023-12-02T07:13:23.829Z,-2.6
2023-12-02T07:14:38.069Z,-2.6
2023-12-02T07:15:52.309Z,-2.6
2023-12-02T07:17:06.548Z,-2.6
2023-12-02T07:18:20.788Z,-2.6
2023-12-02T07:19:35.028Z,-2.6
2023-12-02T07:20:49.268Z,-2.6
2023-12-02T07:22:03.508Z,-2.6
2023-12-02T07:23:17.747Z,-2.6
2023-12-02T07:24:31.987Z,-2.6
2023-12-02T07:25:46.227Z,-2.6
2023-12-02T07:27:00.466Z,-2.6
2023-12-02T07:28:14.706Z,-2.6
2023-12-02T07:29:27.962Z,-2.6
2023-12-02T07:30:42.202Z,-2.6
2023-12-02T07:31:56.442Z,-2.7
2023-12-02T07:33:10.682Z,-2.7
2023-12-02T07:34:24.922Z,-2.7
2023-12-02T07:35:39.162Z,-2.7
2023-12-02T07:36:53.402Z,-2.6
2023-12-02T07:38:07.641Z,-2.6
2023-12-02T07:39:21.881Z,-2.6
2023-12-02T07:40:36.121Z,-2.5
2023-12-02T07:41:50.361Z,-2.6
2023-12-02T07:43:04.600Z,-2.5
2023-12-02T07:44:18.840Z,-2.6
2023-12-02T07:45:32.096Z,-2.5
2023-12-02T07:46:46.335Z,-2.5
2023-12-02T07:48:00.575Z,-2.5
2023-12-02T07:49:14.815Z,-2.5
2023-12-02T07:50:29.054Z,-2.5
2023-12-02T07:51:43.294Z,-2.5
2023-12-02T07:52:57.534Z,-2.5
2023-12-02T07:54:11.774Z,-2.5
2023-12-02T07:55:26.013Z,-2.5
2023-12-02T07:56:40.253Z,-2.4
2023-12-02T07:57:54.493Z,-2.4
2023-12-02T07:59:08.732Z,-2.4
2023-12-02T08:00:22.972Z,-2.4
2023-12-02T08:01:36.228Z,-2.4
2023-12-02T08:02:50.468Z,-2.4
2023-12-02T08:04:04.708Z,-2.4
2023-12-02T08:05:18.947Z,-2.4
2023-12-02T08:06:33.187Z,-2.5
2023-12-02T08:07:47.427Z,-2.5
2023-12-02T08:09:01.666Z,-2.5
2023-12-02T08:10:15.906Z,-2.5
2023-12-02T08:11:30.146Z,-2.5
2023-12-02T08:12:44.386Z,-2.4
2023-12-02T08:15:12.865Z,-2.4
2023-12-02T08:16:27.105Z,-2.3
2023-12-02T08:17:40.361Z,-2.3
2023-12-02T08:18:54.601Z,-2.3
2023-12-02T08:20:08.840Z,-2.3
2023-12-02T08:21:23.080Z,-2.3
2023-12-02T08:22:37.320Z,-2.3
2023-12-02T08:23:51.560Z,-2.2
2023-12-02T08:25:05.800Z,-2.2
2023-12-02T08:26:20.039Z,-2.2
2023-12-02T08:27:34.279Z,-2.2
2023-12-02T08:28:48.519Z,-2.2
2023-12-02T08:31:16.998Z,-2.2
2023-12-02T08:32:31.238Z,-2.2
2023-12-02T08:33:44.494Z,-2.2
2023-12-02T08:34:58.734Z,-2.1
2023-12-02T08:36:12.974Z,-2.1
2023-12-02T08:37:27.213Z,-2.2
2023-12-02T08:38:41.453Z,-2.2
2023-12-02T08:39:55.693Z,-2.1
2023-12-02T08:41:08.954Z,-2.2
2023-12-02T08:42:23.193Z,-2.2
2023-12-02T08:43:37.433Z,-2.3
2023-12-02T08:44:51.673Z,-2.2
2023-12-02T08:46:05.913Z,-2.2
2023-12-02T08:47:20.152Z,-2.3
2023-12-02T08:48:34.392Z,-2.2
2023-12-02T08:49:48.632Z,-2.2
2023-12-02T08:51:02.871Z,-2.2
2023-12-02T08:53:31.351Z,-2.1
2023-12-02T08:54:45.591Z,-2.1
2023-12-02T08:55:59.831Z,-2.1
2023-12-02T08:57:13.086Z,-2.1
2023-12-02T08:58:27.326Z,-2.1
2023-12-02T08:59:41.566Z,-2.1
2023-12-02T09:00:55.805Z,-2
2023-12-02T09:02:10.045Z,-2
2023-12-02T09:03:24.285Z,-2
2023-12-02T09:04:38.524Z,-1.9
2023-12-02T09:05:52.764Z,-1.9
2023-12-02T09:07:07.004Z,-1.9
2023-12-02T09:08:21.244Z,-1.9
2023-12-02T09:09:35.483Z,-1.8
2023-12-02T09:10:49.723Z,-1.8
2023-12-02T09:12:03.962Z,-1.8
2023-12-02T09:13:17.218Z,-1.7
2023-12-02T09:14:31.458Z,-1.7
2023-12-02T09:15:45.697Z,-1.7
2023-12-02T09:16:59.937Z,-1.7
2023-12-02T09:18:14.177Z,-1.7
2023-12-02T09:19:28.416Z,-1.6
2023-12-02T09:20:42.656Z,-1.6
2023-12-02T09:21:56.896Z,-1.6
2023-12-02T09:23:11.135Z,-1.7
2023-12-02T09:24:25.375Z,-1.7
2023-12-02T09:25:39.614Z,-1.6
2023-12-02T09:26:53.854Z,-1.6
2023-12-02T09:28:08.094Z,-1.6
2023-12-02T09:29:21.349Z,-1.5
2023-12-02T09:30:35.589Z,-1.5
2023-12-02T09:31:49.828Z,-1.5
2023-12-02T09:33:04.068Z,-1.5
2023-12-02T09:34:18.307Z,-1.5
2023-12-02T09:35:32.547Z,-1.5
2023-12-02T09:36:46.786Z,-1.5
2023-12-02T09:38:01.026Z,-1.4
2023-12-02T09:39:15.266Z,-1.5
2023-12-02T09:40:29.505Z,-1.5
2023-12-02T09:41:43.745Z,-1.5
2023-12-02T09:42:57.984Z,-1.6
2023-12-02T09:44:12.224Z,-1.7
2023-12-02T09:45:25.479Z,-1.6
2023-12-02T09:46:39.719Z,-1.5
2023-12-02T09:47:53.958Z,-1.6
2023-12-02T09:49:08.198Z,-1.5
2023-12-02T09:50:22.427Z,-1.5
2023-12-02T09:51:36.677Z,-1.5
2023-12-02T09:52:50.917Z,-1.5
2023-12-02T09:54:05.156Z,-1.5
2023-12-02T09:55:19.396Z,-1.5
2023-12-02T09:56:33.635Z,-1.5
2023-12-02T09:57:47.875Z,-1.4
2023-12-02T09:59:02.114Z,-1.4
2023-12-02T10:00:16.354Z,-1.4
2023-12-02T10:01:29.609Z,-1.4
2023-12-02T10:02:43.849Z,-1.4
2023-12-02T10:03:58.088Z,-1.4
2023-12-02T10:05:12.328Z,-1.4
2023-12-02T10:06:26.567Z,-1.3
2023-12-02T10:07:40.807Z,-1.3
2023-12-02T10:08:55.046Z,-1.2
2023-12-02T10:10:09.286Z,-1.2
2023-12-02T10:11:23.525Z,-1.2
2023-12-02T10:12:37.765Z,-1.1
2023-12-02T10:13:52.004Z,-1.2
2023-12-02T10:15:06.244Z,-1.2
2023-12-02T10:16:20.483Z,-1.2
2023-12-02T10:17:33.739Z,-1.2
2023-12-02T10:18:47.979Z,-1.2
2023-12-02T10:20:02.219Z,-1.3
2023-12-02T10:21:16.458Z,-1.3
2023-12-02T10:22:30.698Z,-1.2
2023-12-02T10:23:44.937Z,-1.2
2023-12-02T10:24:59.176Z,-1.3
2023-12-02T10:26:13.416Z,-1.3
2023-12-02T10:27:27.655Z,-1.4
2023-12-02T10:28:41.895Z,-1.3
2023-12-02T10:29:56.134Z,-1.3
2023-12-02T10:31:10.373Z,-1.3
2023-12-02T10:32:24.613Z,-1.4
2023-12-02T10:33:37.868Z,-1.3
2023-12-02T10:34:52.108Z,-1.3
2023-12-02T10:36:06.347Z,-1.4
2023-12-02T10:37:20.586Z,-1.4
2023-12-02T10:38:34.826Z,-1.4
2023-12-02T10:39:49.065Z,-1.3
2023-12-02T10:41:03.304Z,-1.3
2023-12-02T10:42:17.544Z,-1.4
2023-12-02T10:43:31.783Z,-1.4
2023-12-02T10:44:46.023Z,-1.4
2023-12-02T10:46:00.262Z,-1.4
2023-12-02T10:47:14.501Z,-1.4
2023-12-02T10:48:28.741Z,-1.5
2023-12-02T10:49:41.996Z,-1.5
2023-12-02T10:50:56.235Z,-1.6
2023-12-02T10:52:10.475Z,-1.5
2023-12-02T10:53:24.714Z,-1.5
2023-12-02T10:54:38.954Z,-1.5
2023-12-02T10:55:53.193Z,-1.5
2023-12-02T10:57:07.433Z,-1.5
2023-12-02T10:58:21.672Z,-1.7
2023-12-02T10:59:35.911Z,-1.7
2023-12-02T11:00:50.151Z,-1.7
2023-12-02T11:02:04.390Z,-1.7
2023-12-02T11:03:18.629Z,-1.7
2023-12-02T11:04:32.869Z,-1.7
2023-12-02T11:05:46.125Z,-1.7
2023-12-02T11:07:00.364Z,-1.7
2023-12-02T11:08:14.603Z,-1.8
2023-12-02T11:09:28.843Z,-1.7
2023-12-02T11:10:43.082Z,-1.7
2023-12-02T11:11:57.321Z,-1.7
2023-12-02T11:13:11.561Z,-1.7
2023-12-02T11:14:25.800Z,-1.7
2023-12-02T11:15:40.040Z,-1.8
2023-12-02T11:16:54.279Z,-1.8
2023-12-02T11:18:08.519Z,-1.7
2023-12-02T11:19:22.758Z,-1.8
2023-12-02T11:20:36.998Z,-1.7
2023-12-02T11:21:50.254Z,-1.7
2023-12-02T11:23:04.493Z,-1.6
2023-12-02T11:24:18.732Z,-1.5
2023-12-02T11:25:32.973Z,-1.5
2023-12-02T11:26:47.212Z,-1.5
2023-12-02T11:28:01.452Z,-1.5
2023-12-02T11:29:15.674Z,-1.5
2023-12-02T11:30:29.931Z,-1.5
2023-12-02T11:31:44.170Z,-1.5
2023-12-02T11:32:58.409Z,-1.5
2023-12-02T11:34:12.649Z,-1.6
2023-12-02T11:35:26.888Z,-1.7
2023-12-02T11:36:41.128Z,-1.7
2023-12-02T11:37:54.384Z,-1.7
2023-12-02T11:39:08.623Z,-1.7
2023-12-02T11:40:22.863Z,-1.7
2023-12-02T11:41:37.102Z,-1.7
2023-12-02T11:42:51.342Z,-1.8
2023-12-02T11:44:05.581Z,-1.8
2023-12-02T11:45:19.809Z,-1.9
2023-12-02T11:46:34.060Z,-1.9
2023-12-02T11:47:48.300Z,-2
2023-12-02T11:49:02.539Z,-2
2023-12-02T11:50:16.779Z,-2
2023-12-02T11:51:31.018Z,-2
2023-12-02T11:52:45.258Z,-2
2023-12-02T11:53:58.514Z,-2
2023-12-02T11:55:12.753Z,-2
2023-12-02T11:56:26.994Z,-2
2023-12-02T11:57:41.233Z,-2
2023-12-02T11:58:55.473Z,-2
2023-12-02T12:00:09.713Z,-2.1
2023-12-02T12:01:23.952Z,-2
2023-12-02T12:02:38.192Z,-2
2023-12-02T12:03:52.431Z,-2
2023-12-02T12:05:06.671Z,-1.9
2023-12-02T12:06:20.910Z,-2
2023-12-02T12:07:35.150Z,-2
2023-12-02T12:08:49.390Z,-2.1
2023-12-02T12:10:02.645Z,-2.1
2023-12-02T12:11:16.885Z,-2.1
2023-12-02T12:12:31.124Z,-2.1
2023-12-02T12:13:45.364Z,-2.1
2023-12-02T12:14:59.603Z,-2.1
2023-12-02T12:16:13.843Z,-2.1
2023-12-02T12:17:28.083Z,-2.1
2023-12-02T12:18:42.322Z,-2.1
2023-12-02T12:19:56.562Z,-2.1
2023-12-02T12:21:10.801Z,-2.1
2023-12-02T12:22:25.041Z,-2.1
2023-12-02T12:23:39.281Z,-2.1
2023-12-02T12:24:53.520Z,-2.1
2023-12-02T12:26:06.776Z,-2.1
2023-12-02T12:27:21.015Z,-2.1
2023-12-02T12:28:35.255Z,-2.2
2023-12-02T12:29:49.494Z,-2.2
2023-12-02T12:31:03.734Z,-2.2
2023-12-02T12:32:17.974Z,-2.2
2023-12-02T12:33:32.213Z,-2.1
2023-12-02T12:34:46.453Z,-2.1
2023-12-02T12:36:00.693Z,-2.2
2023-12-02T12:37:14.932Z,-2.2
2023-12-02T12:38:29.172Z,-2.2
2023-12-02T12:39:43.411Z,-2.2
2023-12-02T12:40:57.651Z,-2.2
2023-12-02T12:42:10.907Z,-2.2
2023-12-02T12:44:39.386Z,-2.3
2023-12-02T12:45:53.626Z,-2.2
2023-12-02T12:47:07.865Z,-2.2
2023-12-02T12:48:22.105Z,-2.2
2023-12-02T12:49:35.366Z,-2.2
2023-12-02T12:50:49.595Z,-2.2
2023-12-02T12:52:03.845Z,-2.2
2023-12-02T12:53:18.085Z,-2.3
2023-12-02T12:54:32.324Z,-2.3
2023-12-02T12:55:46.564Z,-2.3
2023-12-02T12:57:00.803Z,-2.3
2023-12-02T12:58:15.041Z,-2.3
2023-12-02T12:59:29.282Z,-2.3
2023-12-02T13:00:43.522Z,-2.2
2023-12-02T13:01:57.762Z,-2.2
2023-12-02T13:03:12.002Z,-2.2
2023-12-02T13:04:26.241Z,-2.1
2023-12-02T13:05:39.497Z,-2.1
2023-12-02T13:06:53.736Z,-2.1
2023-12-02T13:08:07.976Z,-2.1
2023-12-02T13:09:22.216Z,-2.1
2023-12-02T13:10:36.455Z,-2.1
2023-12-02T13:11:50.695Z,-2.1
2023-12-02T13:13:04.926Z,-2.1
2023-12-02T13:14:19.174Z,-2.1
2023-12-02T13:15:33.414Z,-2.1
2023-12-02T13:16:47.653Z,-2.1
2023-12-02T13:18:01.893Z,-2.1
2023-12-02T13:19:16.132Z,-2.1
2023-12-02T13:20:30.367Z,-2.1
2023-12-02T13:21:43.628Z,-2.1
2023-12-02T13:22:57.867Z,-2
2023-12-02T13:24:12.107Z,-2.1
2023-12-02T13:25:26.347Z,-2.1
2023-12-02T13:26:40.586Z,-2.1
2023-12-02T13:27:54.826Z,-2.1
2023-12-02T13:29:09.065Z,-2.1
2023-12-02T13:30:23.305Z,-2.1
2023-12-02T13:31:37.545Z,-2.1
2023-12-02T13:32:51.784Z,-2.1
2023-12-02T13:34:06.024Z,-2.1
2023-12-02T13:35:20.264Z,-2.1
2023-12-02T13:36:34.503Z,-2.2
2023-12-02T13:37:47.759Z,-2.1
2023-12-02T13:39:01.998Z,-2.2
2023-12-02T13:40:16.238Z,-2.2
2023-12-02T13:41:30.462Z,-2.2
2023-12-02T13:42:44.717Z,-2.2
2023-12-02T13:43:58.957Z,-2.2
2023-12-02T13:45:13.196Z,-2.2
2023-12-02T13:46:27.436Z,-2.2
2023-12-02T13:47:41.676Z,-2.2
2023-12-02T13:48:55.915Z,-2.2
2023-12-02T13:50:10.155Z,-2.2
2023-12-02T13:51:24.395Z,-2.2
2023-12-02T13:52:38.627Z,-2.2
2023-12-02T13:53:51.890Z,-2.2
2023-12-02T13:55:06.129Z,-2.2
2023-12-02T13:56:20.369Z,-2.2
2023-12-02T13:57:34.609Z,-2.2
2023-12-02T13:58:48.849Z,-2.2
2023-12-02T14:00:03.088Z,-2.2
2023-12-02T14:01:17.328Z,-2.1
2023-12-02T14:02:31.567Z,-2.2
2023-12-02T14:03:45.807Z,-2.1
2023-12-02T14:05:00.047Z,-2.2
2023-12-02T14:06:14.286Z,-2.2
2023-12-02T14:07:28.526Z,-2.2
2023-12-02T14:08:42.766Z,-2.2
2023-12-02T14:09:56.013Z,-2.2
2023-12-02T14:11:10.261Z,-2.2
2023-12-02T14:12:24.501Z,-2.2
2023-12-02T14:13:38.740Z,-2.2
2023-12-02T14:14:52.980Z,-2.2
2023-12-02T14:16:07.220Z,-2.2
2023-12-02T14:17:21.459Z,-2.2
2023-12-02T14:18:35.699Z,-2.2
2023-12-02T14:19:49.939Z,-2.2
2023-12-02T14:21:04.178Z,-2.3
2023-12-02T14:22:18.418Z,-2.3
2023-12-02T14:23:32.659Z,-2.2
2023-12-02T14:24:46.898Z,-2.2
2023-12-02T14:26:00.154Z,-2.2
2023-12-02T14:28:28.633Z,-2.2
2023-12-02T14:29:42.873Z,-2.2
2023-12-02T14:30:57.113Z,-2.2
2023-12-02T14:32:11.353Z,-2.2
2023-12-02T14:33:25.592Z,-2.2
2023-12-02T14:34:39.832Z,-2.2
2023-12-02T14:35:54.072Z,-2.2
2023-12-02T14:37:08.311Z,-2.1
2023-12-02T14:38:22.552Z,-2.1
2023-12-02T14:39:36.792Z,-2.1
2023-12-02T14:40:51.032Z,-2.2
2023-12-02T14:42:04.287Z,-2.2
2023-12-02T14:43:18.527Z,-2.2
2023-12-02T14:44:32.767Z,-2.2
2023-12-02T14:45:47.006Z,-2.2
2023-12-02T14:47:01.246Z,-2.2
2023-12-02T14:48:15.486Z,-2.2
2023-12-02T14:49:29.725Z,-2.3
2023-12-02T14:50:43.965Z,-2.2
2023-12-02T14:51:58.205Z,-2.3
2023-12-02T14:53:12.445Z,-2.3
2023-12-02T14:54:26.685Z,-2.3
2023-12-02T14:55:40.925Z,-2.3
2023-12-02T14:56:55.165Z,-2.3
2023-12-02T14:58:08.421Z,-2.3
2023-12-02T14:59:22.660Z,-2.3
2023-12-02T15:00:36.900Z,-2.3
2023-12-02T15:01:51.140Z,-2.3
2023-12-02T15:03:05.380Z,-2.4
2023-12-02T15:04:19.619Z,-2.4
2023-12-02T15:05:33.859Z,-2.3
2023-12-02T15:06:48.099Z,-2.3
2023-12-02T15:08:02.338Z,-2.3
2023-12-02T15:09:16.578Z,-2.4
2023-12-02T15:10:30.818Z,-2.4
2023-12-02T15:11:45.058Z,-2.4
2023-12-02T15:12:59.298Z,-2.3
2023-12-02T15:14:12.553Z,-2.4
2023-12-02T15:15:26.793Z,-2.4
2023-12-02T15:16:41.033Z,-2.4
2023-12-02T15:17:55.273Z,-2.4
2023-12-02T15:19:09.512Z,-2.4
2023-12-02T15:20:23.752Z,-2.4
2023-12-02T15:21:37.992Z,-2.3
2023-12-02T15:22:52.232Z,-2.4
2023-12-02T15:24:06.472Z,-2.4
2023-12-02T15:25:20.712Z,-2.4
2023-12-02T15:26:34.952Z,-2.5
2023-12-02T15:27:49.192Z,-2.5
2023-12-02T15:29:03.431Z,-2.5
2023-12-02T15:30:16.687Z,-2.5
2023-12-02T15:31:30.927Z,-2.5
2023-12-02T15:32:45.166Z,-2.6
2023-12-02T15:33:59.406Z,-2.6
2023-12-02T15:35:13.646Z,-2.6
2023-12-02T15:36:27.886Z,-2.6
2023-12-02T15:37:42.125Z,-2.6
2023-12-02T15:38:56.420Z,-2.6
2023-12-02T15:40:10.713Z,-2.7
2023-12-02T15:41:24.964Z,-2.7
2023-12-02T15:42:39.205Z,-2.7
2023-12-02T15:43:53.499Z,-2.7
2023-12-02T15:45:07.793Z,-2.7
2023-12-02T15:46:21.103Z,-2.7
2023-12-02T15:47:35.397Z,-2.7
2023-12-02T15:48:49.690Z,-2.7
2023-12-02T15:50:03.984Z,-2.7
2023-12-02T15:51:18.277Z,-2.7
2023-12-02T15:52:32.571Z,-2.6
2023-12-02T15:53:46.865Z,-2.6
2023-12-02T15:55:01.159Z,-2.6
2023-12-02T15:56:15.452Z,-2.6
2023-12-02T15:57:29.746Z,-2.6
2023-12-02T15:58:44.040Z,-2.6
2023-12-02T15:59:58.333Z,-2.6
2023-12-02T16:01:12.627Z,-2.6
2023-12-02T16:02:25.937Z,-2.6
2023-12-02T16:03:40.231Z,-2.6
2023-12-02T16:04:54.524Z,-2.6
2023-12-02T16:06:08.818Z,-2.6
2023-12-02T16:07:23.112Z,-2.6
2023-12-02T16:08:37.406Z,-2.6
2023-12-02T16:09:51.699Z,-2.6
2023-12-02T16:11:05.993Z,-2.6
2023-12-02T16:12:20.287Z,-2.6
2023-12-02T16:13:34.580Z,-2.6
2023-12-02T16:14:48.858Z,-2.6
2023-12-02T16:16:03.168Z,-2.6
2023-12-02T16:17:17.462Z,-2.6
2023-12-02T16:18:30.772Z,-2.5
2023-12-02T16:19:45.065Z,-2.6
2023-12-02T16:20:59.360Z,-2.6
2023-12-02T16:22:13.654Z,-2.6
2023-12-02T16:23:27.947Z,-2.6
2023-12-02T16:24:42.241Z,-2.6
2023-12-02T16:25:56.535Z,-2.6
2023-12-02T16:27:10.829Z,-2.6
2023-12-02T16:28:25.116Z,-2.5
2023-12-02T16:29:39.416Z,-2.6
2023-12-02T16:30:53.710Z,-2.6
2023-12-02T16:32:08.003Z,-2.6
2023-12-02T16:33:22.297Z,-2.6
2023-12-02T16:34:35.607Z,-2.6
2023-12-02T16:35:49.900Z,-2.6
2023-12-02T16:37:04.194Z,-2.6
2023-12-02T16:38:18.488Z,-2.5